Terminal Aerodrome Forecast
Issued by NWS

Home | Current Version | Previous Version | Graphics & Text | Print | Product List | Glossary On
Versions: 1 2 3 4 5 6 7 8 9 10 11 12 13
000
FTUS43 KMPX 210500
TAFRWF
TAF
KRWF 210523Z 2106/2206 29009KT P6SM SCT070 BKN110
     FM211300 33011G17KT P6SM BKN070
     FM212000 34009KT P6SM SCT080
     FM220100 35003KT P6SM SKC=

USA.gov is the U.S. government's official web portal to all federal, state and local government web resources and services.